Kiamika, Canada
Current Conditions -  °F | °C
As of 8:00 AM on Tuesday 21 Oct 2014 (Local Time) from CYND Reporting Station
Drizzle Drizzle  
Wind Chill: 38°   Ceiling: 2200
Heat Index: 43°   Visibility: 10mi
Dew Point: 41°   Wind: 8mph
Humidity: 93%   Direction: 50°NE
Pressure: 29.96"   Gusts: NA
Location:  46.42°N, 75.37°W
Report Text: CYND 211200Z 05007KT 10SM -DZ FEW009 OVC022 06/05 A2996 RMK SF1SC7 SLP149
Loading
Personal Weather Stations






























Interactive Weather Map New forecast layout! Learn more

10-Day Weather Forecast

Advertisements
Track Severe Weather on mobile